Página principal
METAR-TAF:

METAR-TAF

Aeroportos :

La Paz, Bolívia

Aeroporto Internacional de El Alto

latitude: 16-31S, longitude: 068-11W, altura: 4058 m

Observação actual do tempo

O boletim foi feito há 1 hora e 0 minutos, às 05:00 UTC
Vento 6 kt de norte
Temperatura 1°C
Humidade 11%
Pressão 1038 hPa
Visibilidade 10 km ou mais

METAR: SLLP 200500Z 01006KT 9999 NSC 01/M26 Q1038

Hora: 02:00 (06:00 UTC)

Previsão

O boletim foi feito há 0 minutos, às 06:00 UTC
Previsão válida de 20 às 06 UTC a 21 às 06 UTC
Vento 6 kt de nordeste
Visibilidade 10 km ou mais
Tornando-se
de 20 às 12 UTC a 20 às 14 UTC
Vento 8 kt de oes-noroeste
Temporariamente
de 20 às 17 UTC a 20 às 21 UTC
Vento 10 kt de nor-noroeste com rajadas de 20 kt
Poucas nuvensa uma altura de 2000 ft

TAF: SLLP 200600Z 2006/2106 04006KT 9999 NSC TX16/2020Z TNM04/2010Z BECMG 2012/2014 30008KT TEMPO 2017/2021 34010G20KT FEW020

Observações e previsões do tempo de mais de 4000 aeroportos (mensagens METAR e TAF).

As estações disponíveis são os pontos amarelos e vermelhos sobre o mapa.

Mova o rato sobre o mapa para ver o nome da estação.

Depois clique no ponto para visualizar as observações e previsões meteorológicas.

Para alterar o mapa : clique nos botões verdes com uma cruz preta para aumentar o zoom; no botão verde com uma pitada de zoom; ou nas setas verdes para mapas adjacentes.


METAR-TAF: